Time;durP1;ratioP1;P1;durP2;ratioP2;P2;SDS_P1;SDS_P2;PMS_P1;PMS_P2;Temp;Humidity;BMP_temperature;BMP_pressure;BME280_temperature;BME280_humidity;BME280_pressure;Samples;Min_cycle;Max_cycle;Signal;HPM_P1;HPM_P2
2023/11/30 00:00:59;;;;;;;7.95;4.88;;;;;;;;;;2089927;28;20413;-61
2023/11/30 00:02:00;;;;;;;10.32;5.07;;;;;;;;;;2090021;28;20045;-58
2023/11/30 00:03:01;;;;;;;8.82;4.90;;;;;;;;;;2090232;28;20055;-59
2023/11/30 00:04:02;;;;;;;10.40;5.03;;;;;;;;;;2091559;28;20051;-60
2023/11/30 00:05:06;;;;;;;9.65;5.10;;;;;;;;;;2092190;28;20049;-63
2023/11/30 00:06:07;;;;;;;9.00;5.13;;;;;;;;;;2091569;28;20057;-59
2023/11/30 00:07:11;;;;;;;8.40;5.05;;;;;;;;;;2091943;28;20060;-59
2023/11/30 00:08:11;;;;;;;9.15;4.90;;;;;;;;;;2091546;28;20531;-59
2023/11/30 00:09:12;;;;;;;9.00;5.18;;;;;;;;;;2091490;28;20047;-58
2023/11/30 00:10:13;;;;;;;8.48;5.15;;;;;;;;;;2092025;28;20112;-59
2023/11/30 00:11:14;;;;;;;12.18;5.55;;;;;;;;;;2092166;28;20049;-59
2023/11/30 00:12:14;;;;;;;9.93;5.18;;;;;;;;;;2091709;28;20036;-59
2023/11/30 00:13:15;;;;;;;9.93;5.28;;;;;;;;;;2091692;28;20040;-59
2023/11/30 00:14:16;;;;;;;8.30;4.63;;;;;;;;;;2092038;28;20048;-59
2023/11/30 00:15:16;;;;;;;10.25;5.22;;;;;;;;;;2091651;28;20029;-58
2023/11/30 00:16:17;;;;;;;8.00;4.72;;;;;;;;;;2091416;28;20504;-58
2023/11/30 00:17:18;;;;;;;8.68;5.28;;;;;;;;;;2091692;28;20022;-59
2023/11/30 00:18:19;;;;;;;10.15;5.35;;;;;;;;;;2091611;28;20029;-58
2023/11/30 00:19:19;;;;;;;9.00;5.50;;;;;;;;;;2091445;28;20133;-62
2023/11/30 00:20:20;;;;;;;10.18;5.57;;;;;;;;;;2091457;28;20045;-59
2023/11/30 00:21:21;;;;;;;9.35;5.35;;;;;;;;;;2091469;28;20035;-59
2023/11/30 00:22:22;;;;;;;9.00;5.47;;;;;;;;;;2091577;28;20072;-60
2023/11/30 00:23:22;;;;;;;11.55;5.55;;;;;;;;;;2091748;28;20033;-58
2023/11/30 00:24:23;;;;;;;11.00;5.13;;;;;;;;;;2091927;28;20116;-60
2023/11/30 00:25:24;;;;;;;9.93;5.30;;;;;;;;;;2091436;28;20048;-59
2023/11/30 00:26:25;;;;;;;10.38;5.65;;;;;;;;;;2091313;28;20052;-58
2023/11/30 00:27:29;;;;;;;9.18;5.47;;;;;;;;;;2090789;28;20037;-59
2023/11/30 00:28:30;;;;;;;9.25;5.68;;;;;;;;;;2091512;28;20049;-59
2023/11/30 00:29:30;;;;;;;8.38;4.80;;;;;;;;;;2091271;28;20081;-60
2023/11/30 00:30:31;;;;;;;8.13;4.88;;;;;;;;;;2091219;28;20040;-59
2023/11/30 00:31:32;;;;;;;9.40;5.35;;;;;;;;;;2090499;28;20049;-60
2023/11/30 00:32:33;;;;;;;9.07;5.28;;;;;;;;;;2090344;28;20056;-59
2023/11/30 00:33:34;;;;;;;10.75;5.43;;;;;;;;;;2082471;28;20034;-60
2023/11/30 00:34:35;;;;;;;10.18;5.95;;;;;;;;;;2082780;28;20405;-60
2023/11/30 00:35:36;;;;;;;11.73;5.93;;;;;;;;;;2082470;28;20086;-59
2023/11/30 00:36:36;;;;;;;7.57;4.85;;;;;;;;;;2091054;28;20037;-58
2023/11/30 00:37:37;;;;;;;9.77;5.43;;;;;;;;;;2090963;28;20048;-59
2023/11/30 00:38:38;;;;;;;9.43;5.82;;;;;;;;;;2090436;28;20041;-59
2023/11/30 00:39:38;;;;;;;11.18;5.97;;;;;;;;;;2090591;28;20045;-59
2023/11/30 00:40:39;;;;;;;11.15;6.22;;;;;;;;;;2090708;28;20364;-59
2023/11/30 00:41:40;;;;;;;10.18;5.82;;;;;;;;;;2091627;28;20441;-59
2023/11/30 00:42:40;;;;;;;10.52;6.10;;;;;;;;;;2091282;28;20127;-59
2023/11/30 00:43:41;;;;;;;9.70;5.63;;;;;;;;;;2091333;28;20041;-59
2023/11/30 00:44:42;;;;;;;9.77;5.40;;;;;;;;;;2091587;28;20029;-59
2023/11/30 00:45:43;;;;;;;10.35;5.47;;;;;;;;;;2091262;28;20049;-59
2023/11/30 00:46:44;;;;;;;9.68;5.60;;;;;;;;;;2090319;28;20045;-58
2023/11/30 00:47:44;;;;;;;10.35;6.00;;;;;;;;;;2082205;28;20121;-58
2023/11/30 00:48:46;;;;;;;10.43;6.35;;;;;;;;;;2090585;28;20058;-59
2023/11/30 00:49:48;;;;;;;10.38;6.00;;;;;;;;;;2107219;28;20040;-59
2023/11/30 00:50:49;;;;;;;10.07;5.88;;;;;;;;;;2098914;28;20025;-62
2023/11/30 00:51:50;;;;;;;10.45;6.13;;;;;;;;;;2082102;28;20049;-59
2023/11/30 00:52:51;;;;;;;10.32;5.80;;;;;;;;;;2082386;28;20061;-60
2023/11/30 00:53:52;;;;;;;11.85;5.70;;;;;;;;;;2090989;28;20043;-60
2023/11/30 00:54:53;;;;;;;10.27;6.07;;;;;;;;;;2090986;28;20040;-60
2023/11/30 00:55:54;;;;;;;12.00;6.00;;;;;;;;;;2091120;28;20033;-59
2023/11/30 00:56:54;;;;;;;10.38;5.60;;;;;;;;;;2091231;28;20033;-59
2023/11/30 00:57:55;;;;;;;10.68;5.97;;;;;;;;;;2090655;28;20088;-60
2023/11/30 00:58:56;;;;;;;11.43;6.03;;;;;;;;;;2090554;28;20041;-59
2023/11/30 01:00:00;;;;;;;15.65;6.05;;;;;;;;;;2090417;28;20044;-60
2023/11/30 01:01:00;;;;;;;10.45;6.28;;;;;;;;;;2082752;28;20041;-59
2023/11/30 01:02:01;;;;;;;11.43;6.18;;;;;;;;;;2090864;28;20025;-58
2023/11/30 01:03:02;;;;;;;8.75;5.70;;;;;;;;;;2091217;28;20073;-59
2023/11/30 01:04:04;;;;;;;11.75;6.55;;;;;;;;;;2090455;28;20059;-59
2023/11/30 01:05:05;;;;;;;10.88;5.90;;;;;;;;;;2090537;28;20071;-59
2023/11/30 01:06:05;;;;;;;10.65;6.00;;;;;;;;;;2091437;28;20373;-59
2023/11/30 01:07:06;;;;;;;12.30;6.13;;;;;;;;;;2091359;28;20056;-59
2023/11/30 01:08:07;;;;;;;9.40;5.70;;;;;;;;;;2091293;28;20457;-59
2023/11/30 01:09:08;;;;;;;10.52;6.18;;;;;;;;;;2091042;28;20035;-61
2023/11/30 01:10:08;;;;;;;10.77;5.82;;;;;;;;;;2090851;28;20040;-61
2023/11/30 01:11:09;;;;;;;9.02;5.10;;;;;;;;;;2082462;28;20049;-61
2023/11/30 01:12:10;;;;;;;10.05;5.25;;;;;;;;;;2090550;28;20036;-59
2023/11/30 01:13:11;;;;;;;9.80;5.35;;;;;;;;;;2089596;28;20400;-61
2023/11/30 01:14:12;;;;;;;10.20;5.00;;;;;;;;;;2081961;28;20033;-64
2023/11/30 01:15:12;;;;;;;8.43;5.10;;;;;;;;;;2082210;28;20509;-59
2023/11/30 01:16:13;;;;;;;10.50;5.63;;;;;;;;;;2090410;28;20420;-58
2023/11/30 01:17:14;;;;;;;8.52;5.13;;;;;;;;;;2090386;28;20128;-59
2023/11/30 01:18:16;;;;;;;9.93;5.68;;;;;;;;;;2081624;28;20037;-62
2023/11/30 01:19:17;;;;;;;11.07;5.18;;;;;;;;;;2082382;28;20540;-59
2023/11/30 01:20:17;;;;;;;10.13;5.82;;;;;;;;;;2082427;28;20068;-59
2023/11/30 01:21:18;;;;;;;11.35;6.13;;;;;;;;;;2090177;28;20481;-61
2023/11/30 01:22:19;;;;;;;10.30;5.53;;;;;;;;;;2090332;28;20040;-61
2023/11/30 01:23:19;;;;;;;9.20;5.10;;;;;;;;;;2090202;28;20041;-59
2023/11/30 01:24:20;;;;;;;13.60;6.47;;;;;;;;;;2090644;28;20041;-59
2023/11/30 01:25:21;;;;;;;11.60;5.30;;;;;;;;;;2090522;28;20048;-58
2023/11/30 01:26:22;;;;;;;11.20;5.78;;;;;;;;;;2091057;28;20044;-61
2023/11/30 01:27:23;;;;;;;11.90;6.07;;;;;;;;;;2089904;28;20048;-59
2023/11/30 01:28:23;;;;;;;12.02;6.28;;;;;;;;;;2082355;28;20064;-59
2023/11/30 01:29:24;;;;;;;9.02;5.47;;;;;;;;;;2090435;28;20472;-61
2023/11/30 01:30:26;;;;;;;9.63;5.63;;;;;;;;;;2106434;28;20423;-58
2023/11/30 01:31:27;;;;;;;8.95;4.97;;;;;;;;;;2106960;28;20036;-60
2023/11/30 01:32:28;;;;;;;10.57;5.28;;;;;;;;;;2090648;28;20056;-59
2023/11/30 01:33:28;;;;;;;9.85;5.47;;;;;;;;;;2090999;28;20119;-59
2023/11/30 01:34:29;;;;;;;10.23;4.88;;;;;;;;;;2090219;28;20037;-59
2023/11/30 01:35:31;;;;;;;8.82;4.88;;;;;;;;;;2089737;28;20064;-60
2023/11/30 01:36:31;;;;;;;9.43;4.28;;;;;;;;;;2090843;28;20465;-59
2023/11/30 01:37:32;;;;;;;9.48;5.45;;;;;;;;;;2090606;28;20044;-59
2023/11/30 01:38:33;;;;;;;9.65;5.85;;;;;;;;;;2090726;28;20051;-59
2023/11/30 01:39:33;;;;;;;9.90;5.20;;;;;;;;;;2091241;28;20068;-59
2023/11/30 01:40:34;;;;;;;8.80;4.65;;;;;;;;;;2091129;28;20029;-59
2023/11/30 01:41:36;;;;;;;8.82;4.72;;;;;;;;;;2090875;28;20021;-59
2023/11/30 01:42:37;;;;;;;10.32;5.40;;;;;;;;;;2090941;28;20404;-59
2023/11/30 01:43:37;;;;;;;11.10;5.43;;;;;;;;;;2090918;28;20053;-59
2023/11/30 01:44:38;;;;;;;9.02;4.68;;;;;;;;;;2090991;28;20400;-60
2023/11/30 01:45:39;;;;;;;10.07;5.13;;;;;;;;;;2090114;28;20037;-60
2023/11/30 01:46:40;;;;;;;10.07;5.53;;;;;;;;;;2082236;28;20140;-60
2023/11/30 01:47:41;;;;;;;10.38;5.75;;;;;;;;;;2081977;28;20509;-60
2023/11/30 01:48:41;;;;;;;9.40;5.30;;;;;;;;;;2098383;28;20500;-59
2023/11/30 01:49:42;;;;;;;11.98;5.72;;;;;;;;;;2098519;28;20045;-59
2023/11/30 01:50:46;;;;;;;8.90;5.10;;;;;;;;;;2090176;28;20059;-60
2023/11/30 01:51:46;;;;;;;10.65;5.07;;;;;;;;;;2091010;28;20044;-59
2023/11/30 01:52:47;;;;;;;10.13;4.78;;;;;;;;;;2090455;28;20056;-59
2023/11/30 01:53:48;;;;;;;11.65;5.20;;;;;;;;;;2090606;28;20037;-59
2023/11/30 01:54:49;;;;;;;9.02;5.43;;;;;;;;;;2082140;28;20446;-59
2023/11/30 01:55:49;;;;;;;9.27;5.32;;;;;;;;;;2090288;28;20088;-59
2023/11/30 01:56:50;;;;;;;9.93;4.75;;;;;;;;;;2107036;28;20027;-60
2023/11/30 01:57:51;;;;;;;10.23;4.95;;;;;;;;;;2090044;28;20061;-59
2023/11/30 01:58:52;;;;;;;7.35;4.68;;;;;;;;;;2081610;28;20038;-59
2023/11/30 01:59:53;;;;;;;9.13;5.13;;;;;;;;;;2081418;28;20037;-59
2023/11/30 02:00:53;;;;;;;11.32;5.28;;;;;;;;;;2089598;28;20094;-60
2023/11/30 02:01:54;;;;;;;8.55;4.55;;;;;;;;;;2089613;28;20041;-59
2023/11/30 02:02:56;;;;;;;9.02;5.03;;;;;;;;;;2073554;28;20466;-59
2023/11/30 02:03:56;;;;;;;10.95;4.68;;;;;;;;;;2066377;28;20034;-59
2023/11/30 02:04:57;;;;;;;7.65;4.80;;;;;;;;;;2073306;28;20053;-59
2023/11/30 02:05:58;;;;;;;7.80;4.22;;;;;;;;;;2090041;28;20044;-60
2023/11/30 02:06:58;;;;;;;9.88;5.55;;;;;;;;;;2097932;28;20044;-59
2023/11/30 02:08:00;;;;;;;9.43;5.40;;;;;;;;;;2089447;28;20405;-59
2023/11/30 02:09:01;;;;;;;10.32;5.40;;;;;;;;;;2089988;28;20048;-59
2023/11/30 02:10:01;;;;;;;7.75;4.78;;;;;;;;;;2090631;28;20037;-60
2023/11/30 02:11:02;;;;;;;8.38;4.88;;;;;;;;;;2090070;28;20128;-60
2023/11/30 02:12:03;;;;;;;11.10;4.70;;;;;;;;;;2081919;28;20095;-59
2023/11/30 02:13:04;;;;;;;10.60;5.43;;;;;;;;;;2073424;28;20042;-60
2023/11/30 02:14:05;;;;;;;9.40;4.78;;;;;;;;;;2090267;28;20141;-59
2023/11/30 02:15:06;;;;;;;8.65;4.95;;;;;;;;;;2090122;28;20032;-59
2023/11/30 02:16:07;;;;;;;10.93;5.50;;;;;;;;;;2089603;28;20040;-59
2023/11/30 02:17:08;;;;;;;9.57;5.13;;;;;;;;;;2089875;28;20025;-60
2023/11/30 02:18:08;;;;;;;10.13;4.93;;;;;;;;;;2090022;28;20044;-60
2023/11/30 02:19:09;;;;;;;8.27;4.97;;;;;;;;;;2081671;28;20497;-60
2023/11/30 02:20:10;;;;;;;10.73;5.07;;;;;;;;;;2090425;28;20048;-60
2023/11/30 02:21:11;;;;;;;7.90;4.82;;;;;;;;;;2090549;28;20485;-59
2023/11/30 02:22:12;;;;;;;8.77;4.80;;;;;;;;;;2090660;28;20032;-60
2023/11/30 02:23:12;;;;;;;13.05;5.57;;;;;;;;;;2090799;28;20373;-59
2023/11/30 02:24:14;;;;;;;9.60;4.93;;;;;;;;;;2089840;28;20052;-60
2023/11/30 02:25:15;;;;;;;6.75;4.10;;;;;;;;;;2081700;28;20064;-59
2023/11/30 02:26:16;;;;;;;10.25;5.63;;;;;;;;;;2089603;28;20366;-59
2023/11/30 02:27:17;;;;;;;8.73;5.03;;;;;;;;;;2090158;28;20155;-59
2023/11/30 02:28:18;;;;;;;8.65;4.68;;;;;;;;;;2090417;28;20068;-59
2023/11/30 02:29:19;;;;;;;9.48;4.35;;;;;;;;;;2089911;28;20401;-58
2023/11/30 02:30:20;;;;;;;8.80;5.18;;;;;;;;;;2089755;28;20079;-61
2023/11/30 02:31:20;;;;;;;9.35;5.10;;;;;;;;;;2089471;28;20091;-59
2023/11/30 02:32:21;;;;;;;9.93;4.43;;;;;;;;;;2089657;28;20532;-60
2023/11/30 02:33:22;;;;;;;7.38;4.50;;;;;;;;;;2090668;28;20028;-59
2023/11/30 02:34:22;;;;;;;9.20;4.82;;;;;;;;;;2090532;28;20044;-59
2023/11/30 02:35:24;;;;;;;10.02;5.10;;;;;;;;;;2090521;28;20049;-59
2023/11/30 02:36:25;;;;;;;8.48;4.72;;;;;;;;;;2090378;28;20037;-59
2023/11/30 02:37:25;;;;;;;7.90;4.47;;;;;;;;;;2089720;28;20040;-59
2023/11/30 02:38:26;;;;;;;8.38;4.75;;;;;;;;;;2089885;28;20480;-60
2023/11/30 02:39:27;;;;;;;9.10;4.82;;;;;;;;;;2090362;28;20025;-60
2023/11/30 02:40:27;;;;;;;8.80;4.88;;;;;;;;;;2090384;28;20052;-59
2023/11/30 02:41:28;;;;;;;8.82;4.35;;;;;;;;;;2090481;28;20036;-59
2023/11/30 02:42:29;;;;;;;8.27;5.00;;;;;;;;;;2090427;28;20036;-59
2023/11/30 02:43:30;;;;;;;7.95;4.97;;;;;;;;;;2089866;28;20037;-58
2023/11/30 02:44:30;;;;;;;8.32;4.75;;;;;;;;;;2089740;28;20048;-59
2023/11/30 02:45:31;;;;;;;6.95;3.65;;;;;;;;;;2090573;28;20033;-61
2023/11/30 02:46:32;;;;;;;8.07;3.83;;;;;;;;;;2090629;28;20057;-61
2023/11/30 02:47:32;;;;;;;7.15;4.13;;;;;;;;;;2090176;28;20072;-60
2023/11/30 02:48:33;;;;;;;7.80;4.20;;;;;;;;;;2090081;28;20413;-60
2023/11/30 02:49:34;;;;;;;7.13;3.92;;;;;;;;;;2090897;28;20044;-61
2023/11/30 02:50:35;;;;;;;9.57;4.80;;;;;;;;;;2090328;28;20052;-60
2023/11/30 02:51:36;;;;;;;8.95;4.18;;;;;;;;;;2090407;28;20025;-58
2023/11/30 02:52:37;;;;;;;7.60;4.25;;;;;;;;;;2089777;28;20049;-60
2023/11/30 02:53:38;;;;;;;7.63;3.97;;;;;;;;;;2089821;28;20469;-58
2023/11/30 02:54:38;;;;;;;8.90;4.40;;;;;;;;;;2090225;28;20119;-60
2023/11/30 02:55:39;;;;;;;7.50;3.95;;;;;;;;;;2090475;28;20028;-59
2023/11/30 02:56:40;;;;;;;13.02;4.72;;;;;;;;;;2089193;28;20048;-59
2023/11/30 02:57:41;;;;;;;8.05;4.60;;;;;;;;;;2081391;28;20037;-58
2023/11/30 02:58:42;;;;;;;7.60;3.67;;;;;;;;;;2089374;28;20041;-59
2023/11/30 02:59:42;;;;;;;8.05;4.38;;;;;;;;;;2090427;28;20453;-60
2023/11/30 03:00:46;;;;;;;6.50;3.50;;;;;;;;;;2090130;28;20392;-59
2023/11/30 03:01:47;;;;;;;7.00;3.80;;;;;;;;;;2081388;28;20058;-59
2023/11/30 03:02:47;;;;;;;9.90;4.25;;;;;;;;;;2081448;28;20065;-58
2023/11/30 03:03:48;;;;;;;7.05;3.70;;;;;;;;;;2090410;28;20021;-59
2023/11/30 03:04:49;;;;;;;8.50;3.92;;;;;;;;;;2090290;28;20033;-59
2023/11/30 03:05:49;;;;;;;9.05;4.05;;;;;;;;;;2090321;28;20029;-59
2023/11/30 03:06:50;;;;;;;6.63;3.53;;;;;;;;;;2089722;28;20476;-59
2023/11/30 03:07:52;;;;;;;6.07;3.38;;;;;;;;;;2081691;28;20458;-58
2023/11/30 03:08:52;;;;;;;7.82;3.90;;;;;;;;;;2081893;28;20441;-59
2023/11/30 03:09:53;;;;;;;6.65;3.75;;;;;;;;;;2081560;28;20037;-59
2023/11/30 03:10:54;;;;;;;8.60;3.80;;;;;;;;;;2089579;28;20033;-59
2023/11/30 03:11:55;;;;;;;7.25;3.80;;;;;;;;;;2090542;28;20041;-59
2023/11/30 03:12:55;;;;;;;7.60;3.63;;;;;;;;;;2090384;28;20393;-59
2023/11/30 03:13:56;;;;;;;7.45;3.85;;;;;;;;;;2090280;28;20036;-58
2023/11/30 03:14:57;;;;;;;6.32;3.80;;;;;;;;;;2090378;28;20044;-59
2023/11/30 03:15:58;;;;;;;7.45;3.55;;;;;;;;;;2090173;28;20393;-59
2023/11/30 03:16:58;;;;;;;6.07;3.65;;;;;;;;;;2090125;28;20469;-60
2023/11/30 03:17:59;;;;;;;5.45;3.20;;;;;;;;;;2090193;28;20052;-59
2023/11/30 03:19:00;;;;;;;6.22;3.08;;;;;;;;;;2089074;28;20041;-59
2023/11/30 03:20:00;;;;;;;4.95;2.88;;;;;;;;;;2089868;28;20033;-60
2023/11/30 03:21:01;;;;;;;7.53;2.88;;;;;;;;;;2090529;28;20032;-60
2023/11/30 03:22:02;;;;;;;5.43;2.90;;;;;;;;;;2090954;28;20037;-60
2023/11/30 03:23:03;;;;;;;6.03;3.53;;;;;;;;;;2090130;28;20029;-59
2023/11/30 03:24:04;;;;;;;6.35;3.25;;;;;;;;;;2090492;28;20033;-59
2023/11/30 03:25:05;;;;;;;6.25;3.25;;;;;;;;;;2089435;28;20501;-59
2023/11/30 03:26:06;;;;;;;9.70;3.30;;;;;;;;;;2089734;28;20112;-59
2023/11/30 03:27:11;;;;;;;6.53;3.42;;;;;;;;;;2089802;28;20032;-59
2023/11/30 03:28:12;;;;;;;6.47;3.42;;;;;;;;;;2089842;28;20088;-59
2023/11/30 03:29:14;;;;;;;5.90;3.40;;;;;;;;;;2081610;28;20543;-59
2023/11/30 03:30:16;;;;;;;6.85;3.72;;;;;;;;;;2081441;28;20040;-59
2023/11/30 03:31:17;;;;;;;6.13;3.72;;;;;;;;;;2089737;28;20048;-59
2023/11/30 03:32:17;;;;;;;8.10;4.03;;;;;;;;;;2090160;28;20074;-58
2023/11/30 03:33:18;;;;;;;7.88;4.22;;;;;;;;;;2089529;28;20044;-60
2023/11/30 03:34:19;;;;;;;6.80;4.18;;;;;;;;;;2089482;28;20041;-60
2023/11/30 03:35:19;;;;;;;6.18;3.72;;;;;;;;;;2090453;28;20415;-59
2023/11/30 03:36:20;;;;;;;8.30;4.25;;;;;;;;;;2090191;28;20033;-59
2023/11/30 03:37:21;;;;;;;7.68;4.45;;;;;;;;;;2091203;28;20036;-59
2023/11/30 03:38:22;;;;;;;7.45;4.07;;;;;;;;;;2091905;28;20044;-60
2023/11/30 03:39:23;;;;;;;8.52;4.45;;;;;;;;;;2091769;28;20037;-60
2023/11/30 03:40:24;;;;;;;6.82;3.80;;;;;;;;;;2091831;28;20419;-60
2023/11/30 03:41:24;;;;;;;8.75;4.32;;;;;;;;;;2091765;28;20040;-59
2023/11/30 03:42:25;;;;;;;6.97;4.32;;;;;;;;;;2091812;28;20040;-60
2023/11/30 03:43:26;;;;;;;7.28;4.03;;;;;;;;;;2091830;28;20399;-60
2023/11/30 03:44:27;;;;;;;7.95;4.28;;;;;;;;;;2091843;28;20060;-59
2023/11/30 03:45:29;;;;;;;8.40;4.35;;;;;;;;;;2091768;28;20045;-60
2023/11/30 03:46:30;;;;;;;6.93;4.07;;;;;;;;;;2091715;28;20037;-59
2023/11/30 03:47:30;;;;;;;8.10;4.65;;;;;;;;;;2091712;28;20024;-59
2023/11/30 03:48:31;;;;;;;7.70;4.15;;;;;;;;;;2091366;28;20045;-59
2023/11/30 03:49:32;;;;;;;7.57;3.97;;;;;;;;;;2091351;28;20398;-60
2023/11/30 03:50:32;;;;;;;7.95;4.57;;;;;;;;;;2083192;28;20036;-59
2023/11/30 03:51:33;;;;;;;8.75;4.45;;;;;;;;;;2082507;28;20049;-59
2023/11/30 03:52:34;;;;;;;9.60;4.45;;;;;;;;;;2099317;28;20044;-59
2023/11/30 03:53:35;;;;;;;9.50;4.93;;;;;;;;;;2107177;28;20047;-59
2023/11/30 03:54:36;;;;;;;7.38;4.35;;;;;;;;;;2091735;28;20036;-59
2023/11/30 03:55:37;;;;;;;7.35;4.10;;;;;;;;;;2091781;28;20052;-59
2023/11/30 03:56:37;;;;;;;10.48;4.47;;;;;;;;;;2091912;28;20033;-59
2023/11/30 03:57:38;;;;;;;7.60;4.10;;;;;;;;;;2091615;28;20033;-59
2023/11/30 03:58:40;;;;;;;8.82;4.65;;;;;;;;;;2090660;28;20041;-59
2023/11/30 03:59:40;;;;;;;8.70;4.45;;;;;;;;;;2091066;28;20045;-59
2023/11/30 04:00:41;;;;;;;7.35;4.45;;;;;;;;;;2091098;28;20044;-58
2023/11/30 04:01:42;;;;;;;8.13;4.50;;;;;;;;;;2082234;28;20049;-59
2023/11/30 04:02:43;;;;;;;7.72;4.43;;;;;;;;;;2091319;28;20465;-59
2023/11/30 04:03:44;;;;;;;8.05;4.70;;;;;;;;;;2091883;28;20025;-59
2023/11/30 04:04:44;;;;;;;7.93;4.63;;;;;;;;;;2091648;28;20047;-59
2023/11/30 04:05:45;;;;;;;7.32;4.25;;;;;;;;;;2091575;28;20045;-59
2023/11/30 04:06:46;;;;;;;8.27;4.25;;;;;;;;;;2090764;28;20433;-59
2023/11/30 04:07:47;;;;;;;8.63;4.20;;;;;;;;;;2091348;28;20056;-59
2023/11/30 04:08:49;;;;;;;7.63;4.03;;;;;;;;;;2091627;28;20052;-59
2023/11/30 04:09:50;;;;;;;7.45;4.40;;;;;;;;;;2090942;28;20056;-59
2023/11/30 04:10:50;;;;;;;7.40;4.40;;;;;;;;;;2091205;28;20037;-59
2023/11/30 04:11:51;;;;;;;7.45;4.20;;;;;;;;;;2091590;28;20033;-60
2023/11/30 04:12:52;;;;;;;8.18;4.28;;;;;;;;;;2091808;28;20039;-59
2023/11/30 04:13:52;;;;;;;7.88;4.18;;;;;;;;;;2091673;28;20025;-59
2023/11/30 04:14:53;;;;;;;8.13;4.68;;;;;;;;;;2091172;28;20045;-59
2023/11/30 04:15:54;;;;;;;8.48;4.40;;;;;;;;;;2090677;28;20127;-59
2023/11/30 04:16:55;;;;;;;7.15;4.28;;;;;;;;;;2091545;28;20492;-59
2023/11/30 04:17:55;;;;;;;8.18;4.43;;;;;;;;;;2091496;28;20033;-59
2023/11/30 04:18:56;;;;;;;8.32;4.45;;;;;;;;;;2091322;28;20020;-59
2023/11/30 04:19:57;;;;;;;6.97;3.88;;;;;;;;;;2091908;28;20469;-58
2023/11/30 04:20:58;;;;;;;7.95;4.47;;;;;;;;;;2090560;28;20033;-59
2023/11/30 04:21:58;;;;;;;10.00;4.63;;;;;;;;;;2090820;28;20491;-59
2023/11/30 04:22:59;;;;;;;9.38;4.50;;;;;;;;;;2091747;28;20071;-59
2023/11/30 04:24:00;;;;;;;8.23;4.20;;;;;;;;;;2091096;28;20479;-59
2023/11/30 04:25:00;;;;;;;7.78;4.78;;;;;;;;;;2090812;28;20033;-59
2023/11/30 04:26:01;;;;;;;9.15;4.13;;;;;;;;;;2091097;28;20033;-58
2023/11/30 04:27:02;;;;;;;9.70;4.97;;;;;;;;;;2090790;28;20045;-59
2023/11/30 04:28:03;;;;;;;9.55;4.65;;;;;;;;;;2091133;28;20095;-59
2023/11/30 04:29:03;;;;;;;10.98;5.25;;;;;;;;;;2091474;28;20029;-59
2023/11/30 04:30:05;;;;;;;10.55;5.20;;;;;;;;;;2090266;28;20045;-60
2023/11/30 04:31:06;;;;;;;9.23;4.88;;;;;;;;;;2090810;28;20060;-59
2023/11/30 04:32:06;;;;;;;10.10;4.45;;;;;;;;;;2090608;28;20071;-59
2023/11/30 04:33:07;;;;;;;7.32;4.38;;;;;;;;;;2090700;28;20052;-59
2023/11/30 04:34:08;;;;;;;9.38;4.88;;;;;;;;;;2090741;28;20475;-59
2023/11/30 04:35:09;;;;;;;8.55;4.28;;;;;;;;;;2082708;28;20056;-60
2023/11/30 04:36:10;;;;;;;9.70;4.88;;;;;;;;;;2090764;28;20044;-59
2023/11/30 04:37:11;;;;;;;8.02;4.60;;;;;;;;;;2091554;28;20032;-60
2023/11/30 04:38:11;;;;;;;8.40;4.00;;;;;;;;;;2090783;28;20510;-59
2023/11/30 04:39:12;;;;;;;10.50;4.72;;;;;;;;;;2082187;28;20045;-59
2023/11/30 04:40:13;;;;;;;8.85;4.40;;;;;;;;;;2082448;28;20041;-60
2023/11/30 04:41:14;;;;;;;9.10;4.78;;;;;;;;;;2082919;28;20347;-59
2023/11/30 04:42:15;;;;;;;8.40;4.20;;;;;;;;;;2082396;28;20049;-58
2023/11/30 04:43:15;;;;;;;9.40;3.97;;;;;;;;;;2091018;28;20037;-59
2023/11/30 04:44:16;;;;;;;8.98;3.90;;;;;;;;;;2091859;28;20048;-59
2023/11/30 04:45:17;;;;;;;6.88;4.13;;;;;;;;;;2091594;28;20068;-59
2023/11/30 04:46:18;;;;;;;8.00;4.43;;;;;;;;;;2090707;28;20047;-59
2023/11/30 04:47:19;;;;;;;6.78;3.33;;;;;;;;;;2090657;28;20044;-59
2023/11/30 04:48:20;;;;;;;8.68;3.75;;;;;;;;;;2090993;28;20049;-58
2023/11/30 04:49:21;;;;;;;6.00;3.17;;;;;;;;;;2089495;28;20051;-59
2023/11/30 04:50:22;;;;;;;6.60;3.40;;;;;;;;;;2090499;28;20393;-60
2023/11/30 04:51:22;;;;;;;6.25;3.58;;;;;;;;;;2090890;28;20045;-61
2023/11/30 04:52:23;;;;;;;6.55;3.33;;;;;;;;;;2090641;28;20057;-61
2023/11/30 04:53:24;;;;;;;7.05;3.55;;;;;;;;;;2091322;28;20033;-61
2023/11/30 04:54:25;;;;;;;7.32;3.80;;;;;;;;;;2090100;28;20432;-60
2023/11/30 04:55:26;;;;;;;7.72;3.30;;;;;;;;;;2090959;28;20033;-61
2023/11/30 04:56:26;;;;;;;7.93;3.63;;;;;;;;;;2090059;28;20092;-61
2023/11/30 04:57:27;;;;;;;5.88;3.10;;;;;;;;;;2090808;28;20059;-60
2023/11/30 04:58:28;;;;;;;6.03;3.30;;;;;;;;;;2091559;28;20064;-61
2023/11/30 04:59:30;;;;;;;6.35;3.78;;;;;;;;;;2091178;28;20033;-60
2023/11/30 05:00:30;;;;;;;5.22;3.58;;;;;;;;;;2091132;28;20033;-59
2023/11/30 05:01:31;;;;;;;5.93;3.30;;;;;;;;;;2091082;28;20045;-58
2023/11/30 05:02:32;;;;;;;5.68;3.20;;;;;;;;;;2091230;28;20029;-58
2023/11/30 05:03:33;;;;;;;6.38;2.97;;;;;;;;;;2091367;28;20045;-61
2023/11/30 05:04:34;;;;;;;5.78;3.33;;;;;;;;;;2091193;28;20041;-61
2023/11/30 05:05:34;;;;;;;6.70;2.95;;;;;;;;;;2091267;28;20052;-58
2023/11/30 05:06:35;;;;;;;6.13;2.95;;;;;;;;;;2091194;28;20041;-61
2023/11/30 05:07:36;;;;;;;4.97;2.58;;;;;;;;;;2091188;28;20101;-58
2023/11/30 05:08:36;;;;;;;4.55;2.60;;;;;;;;;;2091808;28;20405;-59
2023/11/30 05:09:37;;;;;;;5.07;2.92;;;;;;;;;;2091098;28;20507;-59
2023/11/30 05:10:38;;;;;;;7.47;2.95;;;;;;;;;;2091104;28;20044;-59
2023/11/30 05:11:39;;;;;;;6.03;3.15;;;;;;;;;;2091042;28;20041;-64
2023/11/30 05:12:39;;;;;;;5.50;3.33;;;;;;;;;;2091264;28;20033;-59
2023/11/30 05:13:40;;;;;;;7.57;3.25;;;;;;;;;;2091028;28;20465;-61
2023/11/30 05:14:41;;;;;;;6.07;3.30;;;;;;;;;;2091002;28;20025;-60
2023/11/30 05:15:41;;;;;;;8.80;3.65;;;;;;;;;;2091129;28;20052;-59
2023/11/30 05:16:42;;;;;;;5.68;3.25;;;;;;;;;;2091039;28;20052;-59
2023/11/30 05:17:43;;;;;;;6.97;3.38;;;;;;;;;;2090882;28;20029;-59
2023/11/30 05:18:44;;;;;;;4.60;2.90;;;;;;;;;;2091057;28;20373;-61
2023/11/30 05:19:45;;;;;;;5.93;3.10;;;;;;;;;;2091444;28;20047;-59
2023/11/30 05:20:45;;;;;;;4.82;3.25;;;;;;;;;;2091181;28;20029;-59
2023/11/30 05:21:46;;;;;;;6.00;3.22;;;;;;;;;;2091227;28;20040;-58
2023/11/30 05:22:47;;;;;;;5.45;2.85;;;;;;;;;;2091030;28;20136;-59
2023/11/30 05:23:48;;;;;;;7.63;3.67;;;;;;;;;;2091640;28;20408;-60
2023/11/30 05:24:51;;;;;;;5.57;3.00;;;;;;;;;;2090856;28;20045;-61
2023/11/30 05:25:52;;;;;;;5.55;3.00;;;;;;;;;;2090939;28;20457;-59
2023/11/30 05:26:53;;;;;;;5.55;3.17;;;;;;;;;;2091497;28;20025;-58
2023/11/30 05:27:53;;;;;;;6.55;3.70;;;;;;;;;;2090961;28;20040;-58
2023/11/30 05:28:54;;;;;;;7.50;3.60;;;;;;;;;;2091818;28;20041;-61
2023/11/30 05:29:55;;;;;;;8.13;3.67;;;;;;;;;;2090895;28;20385;-60
2023/11/30 05:30:56;;;;;;;5.72;3.38;;;;;;;;;;2090400;28;20048;-59
2023/11/30 05:31:56;;;;;;;6.47;3.45;;;;;;;;;;2090576;28;20060;-59
2023/11/30 05:32:57;;;;;;;6.97;3.83;;;;;;;;;;2090856;28;20041;-59
2023/11/30 05:33:58;;;;;;;6.95;4.20;;;;;;;;;;2090370;28;20431;-60
2023/11/30 05:34:58;;;;;;;7.28;3.83;;;;;;;;;;2090792;28;20037;-59
2023/11/30 05:36:00;;;;;;;6.30;3.38;;;;;;;;;;2091287;28;20381;-59
2023/11/30 05:37:03;;;;;;;8.52;4.18;;;;;;;;;;2090980;28;20041;-60
2023/11/30 05:38:04;;;;;;;6.97;3.72;;;;;;;;;;2091580;28;20043;-59
2023/11/30 05:39:06;;;;;;;5.25;3.33;;;;;;;;;;2090859;28;20041;-59
2023/11/30 05:40:07;;;;;;;6.78;3.65;;;;;;;;;;2090825;28;20033;-58
2023/11/30 05:41:08;;;;;;;6.78;3.20;;;;;;;;;;2090940;28;20029;-59
2023/11/30 05:42:10;;;;;;;6.35;4.10;;;;;;;;;;2090770;28;20037;-59
2023/11/30 05:43:10;;;;;;;6.55;3.50;;;;;;;;;;2090813;28;20488;-58
2023/11/30 05:44:11;;;;;;;6.13;3.45;;;;;;;;;;2091061;28;20024;-61
2023/11/30 05:45:12;;;;;;;6.63;3.45;;;;;;;;;;2090956;28;20029;-61
2023/11/30 05:46:12;;;;;;;5.32;3.40;;;;;;;;;;2090773;28;20032;-61
2023/11/30 05:47:14;;;;;;;6.10;3.00;;;;;;;;;;2090986;28;20393;-59
2023/11/30 05:48:14;;;;;;;6.25;3.75;;;;;;;;;;2089908;28;20521;-59
2023/11/30 05:49:15;;;;;;;6.35;3.72;;;;;;;;;;2089897;28;20059;-58
2023/11/30 05:50:16;;;;;;;6.90;3.58;;;;;;;;;;2090777;28;20044;-59
2023/11/30 05:51:17;;;;;;;6.90;3.50;;;;;;;;;;2091090;28;20048;-58
2023/11/30 05:52:18;;;;;;;9.23;3.85;;;;;;;;;;2090998;28;20032;-62
2023/11/30 05:53:18;;;;;;;6.63;3.80;;;;;;;;;;2091528;28;20045;-59
2023/11/30 05:54:19;;;;;;;7.10;3.72;;;;;;;;;;2090707;28;20048;-60
2023/11/30 05:55:20;;;;;;;8.75;3.60;;;;;;;;;;2089815;28;20425;-59
2023/11/30 05:56:21;;;;;;;7.55;3.53;;;;;;;;;;2090092;28;20064;-62
2023/11/30 05:57:22;;;;;;;8.05;4.68;;;;;;;;;;2091007;28;20041;-59
2023/11/30 05:58:22;;;;;;;7.13;3.70;;;;;;;;;;2091426;28;20137;-60
2023/11/30 05:59:23;;;;;;;6.18;3.85;;;;;;;;;;2090961;28;20037;-60
2023/11/30 06:00:24;;;;;;;7.00;4.32;;;;;;;;;;2091445;28;20041;-59
2023/11/30 06:01:24;;;;;;;8.35;4.05;;;;;;;;;;2090865;28;20500;-61
2023/11/30 06:02:27;;;;;;;8.30;4.05;;;;;;;;;;2090655;28;20029;-59
2023/11/30 06:03:28;;;;;;;6.53;3.88;;;;;;;;;;2090640;28;20520;-61
2023/11/30 06:04:29;;;;;;;6.45;3.85;;;;;;;;;;2090837;28;20044;-59